sensor_id;sensor_type;location;lat;lon;timestamp;P1;durP1;ratioP1;P2;durP2;ratioP2
12768;SDS011;6448;48.916;8.990;2022-12-04T16:57:07;12.73;;;11.43;;
12768;SDS011;6448;48.916;8.990;2022-12-04T16:58:09;13.00;;;11.70;;
12768;SDS011;6448;48.916;8.990;2022-12-04T16:59:12;12.93;;;11.73;;
12768;SDS011;6448;48.916;8.990;2022-12-04T17:00:14;13.55;;;12.25;;
12768;SDS011;6448;48.916;8.990;2022-12-04T17:01:18;13.65;;;12.35;;
12768;SDS011;6448;48.916;8.990;2022-12-04T17:02:25;12.70;;;11.50;;
12768;SDS011;6448;48.916;8.990;2022-12-04T17:03:27;13.00;;;11.70;;
12768;SDS011;6448;48.916;8.990;2022-12-04T17:04:30;12.45;;;11.15;;
12768;SDS011;6448;48.916;8.990;2022-12-04T17:05:32;13.10;;;11.80;;
12768;SDS011;6448;48.916;8.990;2022-12-04T17:06:34;12.50;;;11.30;;
12768;SDS011;6448;48.916;8.990;2022-12-04T17:07:36;12.35;;;11.15;;
12768;SDS011;6448;48.916;8.990;2022-12-04T17:08:38;12.50;;;11.27;;
12768;SDS011;6448;48.916;8.990;2022-12-04T17:09:42;12.57;;;11.37;;
12768;SDS011;6448;48.916;8.990;2022-12-04T17:10:44;12.38;;;11.18;;
12768;SDS011;6448;48.916;8.990;2022-12-04T17:11:45;11.83;;;10.70;;
12768;SDS011;6448;48.916;8.990;2022-12-04T17:12:48;13.10;;;11.80;;
12768;SDS011;6448;48.916;8.990;2022-12-04T17:13:50;11.98;;;10.75;;
12768;SDS011;6448;48.916;8.990;2022-12-04T17:14:52;12.50;;;11.30;;
12768;SDS011;6448;48.916;8.990;2022-12-04T17:15:53;12.57;;;11.30;;
12768;SDS011;6448;48.916;8.990;2022-12-04T17:16:55;12.45;;;11.25;;
12768;SDS011;6448;48.916;8.990;2022-12-04T17:17:57;12.37;;;11.17;;
12768;SDS011;6448;48.916;8.990;2022-12-04T17:18:58;12.27;;;11.07;;
12768;SDS011;6448;48.916;8.990;2022-12-04T17:20:00;12.80;;;11.60;;
12768;SDS011;6448;48.916;8.990;2022-12-04T17:21:03;12.98;;;11.75;;
12768;SDS011;6448;48.916;8.990;2022-12-04T17:22:05;13.57;;;12.27;;
12768;SDS011;6448;48.916;8.990;2022-12-04T17:23:08;14.18;;;12.77;;
12768;SDS011;6448;48.916;8.990;2022-12-04T17:24:10;13.80;;;12.50;;
12768;SDS011;6448;48.916;8.990;2022-12-04T17:25:12;13.15;;;11.85;;
12768;SDS011;6448;48.916;8.990;2022-12-04T17:26:14;12.98;;;11.68;;
12768;SDS011;6448;48.916;8.990;2022-12-04T17:27:15;13.27;;;11.98;;
12768;SDS011;6448;48.916;8.990;2022-12-04T17:28:18;13.32;;;12.02;;
12768;SDS011;6448;48.916;8.990;2022-12-04T17:29:20;12.75;;;11.55;;
12768;SDS011;6448;48.916;8.990;2022-12-04T17:30:21;13.48;;;12.27;;
12768;SDS011;6448;48.916;8.990;2022-12-04T17:31:23;13.20;;;11.90;;
12768;SDS011;6448;48.916;8.990;2022-12-04T17:32:26;13.07;;;11.88;;
12768;SDS011;6448;48.916;8.990;2022-12-04T17:33:29;13.70;;;12.40;;
12768;SDS011;6448;48.916;8.990;2022-12-04T17:34:31;14.02;;;12.70;;
12768;SDS011;6448;48.916;8.990;2022-12-04T17:35:33;13.57;;;12.27;;
12768;SDS011;6448;48.916;8.990;2022-12-04T17:36:34;13.52;;;12.23;;
12768;SDS011;6448;48.916;8.990;2022-12-04T17:37:36;13.32;;;12.05;;
12768;SDS011;6448;48.916;8.990;2022-12-04T17:38:37;13.68;;;12.32;;
12768;SDS011;6448;48.916;8.990;2022-12-04T17:39:40;13.63;;;12.23;;
12768;SDS011;6448;48.916;8.990;2022-12-04T17:40:41;13.32;;;12.07;;
12768;SDS011;6448;48.916;8.990;2022-12-04T17:41:43;13.68;;;12.38;;
12768;SDS011;6448;48.916;8.990;2022-12-04T17:42:45;13.55;;;12.25;;
12768;SDS011;6448;48.916;8.990;2022-12-04T17:43:48;13.93;;;12.52;;
12768;SDS011;6448;48.916;8.990;2022-12-04T17:44:50;16.13;;;14.52;;
12768;SDS011;6448;48.916;8.990;2022-12-04T17:45:51;17.35;;;15.65;;
12768;SDS011;6448;48.916;8.990;2022-12-04T17:46:53;16.65;;;15.05;;
12768;SDS011;6448;48.916;8.990;2022-12-04T17:47:54;15.10;;;13.70;;
12768;SDS011;6448;48.916;8.990;2022-12-04T17:48:56;13.90;;;12.57;;
12768;SDS011;6448;48.916;8.990;2022-12-04T17:49:56;13.70;;;12.45;;
12768;SDS011;6448;48.916;8.990;2022-12-04T17:51:02;13.63;;;12.32;;
12768;SDS011;6448;48.916;8.990;2022-12-04T17:52:04;13.73;;;12.43;;
12768;SDS011;6448;48.916;8.990;2022-12-04T17:53:06;14.00;;;12.70;;
12768;SDS011;6448;48.916;8.990;2022-12-04T17:54:08;14.55;;;13.15;;
12768;SDS011;6448;48.916;8.990;2022-12-04T17:55:11;14.73;;;13.32;;
12768;SDS011;6448;48.916;8.990;2022-12-04T17:56:14;14.23;;;12.93;;
12768;SDS011;6448;48.916;8.990;2022-12-04T17:57:18;15.02;;;13.63;;
12768;SDS011;6448;48.916;8.990;2022-12-04T17:58:20;14.52;;;13.23;;
12768;SDS011;6448;48.916;8.990;2022-12-04T17:59:23;14.82;;;13.43;;
12768;SDS011;6448;48.916;8.990;2022-12-04T18:00:24;13.00;;;11.70;;
12768;SDS011;6448;48.916;8.990;2022-12-04T18:01:26;12.20;;;11.10;;
12768;SDS011;6448;48.916;8.990;2022-12-04T18:02:29;12.20;;;11.00;;
12768;SDS011;6448;48.916;8.990;2022-12-04T18:03:31;13.00;;;11.80;;
12768;SDS011;6448;48.916;8.990;2022-12-04T18:04:32;12.23;;;11.02;;
12768;SDS011;6448;48.916;8.990;2022-12-04T18:05:34;12.40;;;11.30;;
12768;SDS011;6448;48.916;8.990;2022-12-04T18:06:37;12.85;;;11.60;;
12768;SDS011;6448;48.916;8.990;2022-12-04T18:07:39;12.25;;;11.10;;
12768;SDS011;6448;48.916;8.990;2022-12-04T18:08:41;11.63;;;10.52;;
12768;SDS011;6448;48.916;8.990;2022-12-04T18:09:42;13.60;;;12.20;;
12768;SDS011;6448;48.916;8.990;2022-12-04T18:10:44;13.98;;;12.63;;
12768;SDS011;6448;48.916;8.990;2022-12-04T18:11:45;16.03;;;14.53;;
12768;SDS011;6448;48.916;8.990;2022-12-04T18:12:48;21.65;;;19.55;;
12768;SDS011;6448;48.916;8.990;2022-12-04T18:13:53;23.33;;;21.05;;
12768;SDS011;6448;48.916;8.990;2022-12-04T18:14:58;17.35;;;15.75;;
12768;SDS011;6448;48.916;8.990;2022-12-04T18:16:00;16.05;;;14.55;;
12768;SDS011;6448;48.916;8.990;2022-12-04T18:17:03;14.80;;;13.40;;
12768;SDS011;6448;48.916;8.990;2022-12-04T18:18:05;14.25;;;12.90;;
12768;SDS011;6448;48.916;8.990;2022-12-04T18:19:06;12.88;;;11.65;;
12768;SDS011;6448;48.916;8.990;2022-12-04T18:20:08;12.93;;;11.73;;
12768;SDS011;6448;48.916;8.990;2022-12-04T18:21:10;13.05;;;11.80;;
12768;SDS011;6448;48.916;8.990;2022-12-04T18:22:11;12.65;;;11.52;;
12768;SDS011;6448;48.916;8.990;2022-12-04T18:23:13;12.85;;;11.65;;
12768;SDS011;6448;48.916;8.990;2022-12-04T18:24:14;12.48;;;11.27;;
12768;SDS011;6448;48.916;8.990;2022-12-04T18:25:16;12.73;;;11.63;;
12768;SDS011;6448;48.916;8.990;2022-12-04T18:26:17;12.52;;;11.32;;
12768;SDS011;6448;48.916;8.990;2022-12-04T18:27:20;12.57;;;11.38;;
12768;SDS011;6448;48.916;8.990;2022-12-04T18:28:22;12.20;;;11.10;;
12768;SDS011;6448;48.916;8.990;2022-12-04T18:29:25;12.10;;;11.00;;
12768;SDS011;6448;48.916;8.990;2022-12-04T18:30:28;12.07;;;10.97;;
12768;SDS011;6448;48.916;8.990;2022-12-04T18:31:31;11.38;;;10.27;;
12768;SDS011;6448;48.916;8.990;2022-12-04T18:32:33;11.50;;;10.40;;
12768;SDS011;6448;48.916;8.990;2022-12-04T18:33:35;11.07;;;10.07;;
12768;SDS011;6448;48.916;8.990;2022-12-04T18:34:38;11.52;;;10.43;;
12768;SDS011;6448;48.916;8.990;2022-12-04T18:35:40;11.20;;;10.13;;
12768;SDS011;6448;48.916;8.990;2022-12-04T18:36:41;11.52;;;10.43;;
12768;SDS011;6448;48.916;8.990;2022-12-04T18:37:44;11.27;;;10.18;;
12768;SDS011;6448;48.916;8.990;2022-12-04T18:38:45;11.55;;;10.45;;
12768;SDS011;6448;48.916;8.990;2022-12-04T18:39:47;11.00;;;10.00;;
12768;SDS011;6448;48.916;8.990;2022-12-04T18:40:49;10.82;;;9.82;;
12768;SDS011;6448;48.916;8.990;2022-12-04T18:41:53;10.55;;;9.55;;
12768;SDS011;6448;48.916;8.990;2022-12-04T18:42:55;11.10;;;10.02;;
12768;SDS011;6448;48.916;8.990;2022-12-04T18:43:56;10.57;;;9.57;;
12768;SDS011;6448;48.916;8.990;2022-12-04T18:44:59;10.50;;;9.50;;
12768;SDS011;6448;48.916;8.990;2022-12-04T18:46:03;10.68;;;9.68;;
12768;SDS011;6448;48.916;8.990;2022-12-04T18:47:06;10.77;;;9.77;;
12768;SDS011;6448;48.916;8.990;2022-12-04T18:48:07;10.80;;;9.80;;
12768;SDS011;6448;48.916;8.990;2022-12-04T18:49:09;10.73;;;9.68;;
12768;SDS011;6448;48.916;8.990;2022-12-04T18:50:12;10.70;;;9.70;;
12768;SDS011;6448;48.916;8.990;2022-12-04T18:51:15;10.52;;;9.52;;
12768;SDS011;6448;48.916;8.990;2022-12-04T18:52:18;10.15;;;9.15;;
12768;SDS011;6448;48.916;8.990;2022-12-04T18:53:20;10.52;;;9.52;;
12768;SDS011;6448;48.916;8.990;2022-12-04T18:54:22;10.30;;;9.30;;
12768;SDS011;6448;48.916;8.990;2022-12-04T18:55:24;10.63;;;9.60;;
12768;SDS011;6448;48.916;8.990;2022-12-04T18:56:25;10.60;;;9.53;;
12768;SDS011;6448;48.916;8.990;2022-12-04T18:57:27;10.70;;;9.70;;
12768;SDS011;6448;48.916;8.990;2022-12-04T18:58:29;10.68;;;9.68;;
12768;SDS011;6448;48.916;8.990;2022-12-04T18:59:30;10.80;;;9.73;;
12768;SDS011;6448;48.916;8.990;2022-12-04T19:00:32;10.25;;;9.35;;
12768;SDS011;6448;48.916;8.990;2022-12-04T19:01:34;10.57;;;9.65;;
12768;SDS011;6448;48.916;8.990;2022-12-04T19:02:36;10.30;;;9.30;;
12768;SDS011;6448;48.916;8.990;2022-12-04T19:03:38;10.23;;;9.32;;
12768;SDS011;6448;48.916;8.990;2022-12-04T19:04:39;10.60;;;9.60;;
12768;SDS011;6448;48.916;8.990;2022-12-04T19:05:46;10.32;;;9.43;;
12768;SDS011;6448;48.916;8.990;2022-12-04T19:06:48;10.57;;;9.57;;
12768;SDS011;6448;48.916;8.990;2022-12-04T19:07:51;10.90;;;9.90;;
12768;SDS011;6448;48.916;8.990;2022-12-04T19:08:53;10.90;;;9.90;;
12768;SDS011;6448;48.916;8.990;2022-12-04T19:09:53;10.55;;;9.60;;
12768;SDS011;6448;48.916;8.990;2022-12-04T19:10:55;11.10;;;10.05;;
12768;SDS011;6448;48.916;8.990;2022-12-04T19:12:03;10.88;;;9.88;;
12768;SDS011;6448;48.916;8.990;2022-12-04T19:13:05;10.70;;;9.70;;
12768;SDS011;6448;48.916;8.990;2022-12-04T19:14:07;10.32;;;9.32;;
12768;SDS011;6448;48.916;8.990;2022-12-04T19:15:10;10.30;;;9.30;;
12768;SDS011;6448;48.916;8.990;2022-12-04T19:16:12;10.43;;;9.43;;
12768;SDS011;6448;48.916;8.990;2022-12-04T19:17:17;9.77;;;8.87;;
12768;SDS011;6448;48.916;8.990;2022-12-04T19:18:20;9.80;;;8.90;;
12768;SDS011;6448;48.916;8.990;2022-12-04T19:19:20;9.35;;;8.50;;
12768;SDS011;6448;48.916;8.990;2022-12-04T19:20:22;9.30;;;8.50;;
12768;SDS011;6448;48.916;8.990;2022-12-04T19:21:23;9.50;;;8.60;;
12768;SDS011;6448;48.916;8.990;2022-12-04T19:22:25;9.13;;;8.32;;
12768;SDS011;6448;48.916;8.990;2022-12-04T19:23:35;9.98;;;9.07;;
12768;SDS011;6448;48.916;8.990;2022-12-04T19:25:02;9.73;;;8.82;;
12768;SDS011;6448;48.916;8.990;2022-12-04T19:26:03;9.40;;;8.60;;
12768;SDS011;6448;48.916;8.990;2022-12-04T19:27:08;8.98;;;8.18;;
12768;SDS011;6448;48.916;8.990;2022-12-04T19:28:24;9.37;;;8.47;;
12768;SDS011;6448;48.916;8.990;2022-12-04T19:29:35;8.98;;;8.18;;
12768;SDS011;6448;48.916;8.990;2022-12-04T19:30:38;8.77;;;7.97;;
12768;SDS011;6448;48.916;8.990;2022-12-04T19:31:39;9.00;;;8.20;;
12768;SDS011;6448;48.916;8.990;2022-12-04T19:32:43;8.47;;;7.67;;
12768;SDS011;6448;48.916;8.990;2022-12-04T19:33:45;8.98;;;8.18;;
12768;SDS011;6448;48.916;8.990;2022-12-04T19:34:46;8.70;;;7.90;;
12768;SDS011;6448;48.916;8.990;2022-12-04T19:35:54;9.15;;;8.25;;
12768;SDS011;6448;48.916;8.990;2022-12-04T19:36:56;10.23;;;9.30;;
12768;SDS011;6448;48.916;8.990;2022-12-04T19:37:58;11.40;;;10.30;;
12768;SDS011;6448;48.916;8.990;2022-12-04T19:39:02;12.37;;;11.27;;
12768;SDS011;6448;48.916;8.990;2022-12-04T19:40:06;11.80;;;10.70;;
12768;SDS011;6448;48.916;8.990;2022-12-04T19:41:09;11.50;;;10.40;;
12768;SDS011;6448;48.916;8.990;2022-12-04T19:42:12;11.13;;;10.02;;
12768;SDS011;6448;48.916;8.990;2022-12-04T19:43:18;11.18;;;10.18;;
12768;SDS011;6448;48.916;8.990;2022-12-04T19:44:27;12.50;;;11.30;;
12768;SDS011;6448;48.916;8.990;2022-12-04T19:45:35;11.80;;;10.70;;
12768;SDS011;6448;48.916;8.990;2022-12-04T19:46:37;11.47;;;10.37;;
12768;SDS011;6448;48.916;8.990;2022-12-04T19:47:39;12.02;;;10.82;;
12768;SDS011;6448;48.916;8.990;2022-12-04T19:48:42;12.13;;;11.00;;
12768;SDS011;6448;48.916;8.990;2022-12-04T19:49:46;11.90;;;10.80;;
12768;SDS011;6448;48.916;8.990;2022-12-04T19:50:47;12.50;;;11.20;;
12768;SDS011;6448;48.916;8.990;2022-12-04T19:51:49;13.15;;;11.85;;
12768;SDS011;6448;48.916;8.990;2022-12-04T19:52:50;12.38;;;11.20;;
12768;SDS011;6448;48.916;8.990;2022-12-04T19:53:52;11.37;;;10.30;;
12768;SDS011;6448;48.916;8.990;2022-12-04T19:54:54;11.93;;;10.82;;
12768;SDS011;6448;48.916;8.990;2022-12-04T19:55:56;11.17;;;10.07;;
12768;SDS011;6448;48.916;8.990;2022-12-04T19:57:00;10.98;;;9.88;;
12768;SDS011;6448;48.916;8.990;2022-12-04T19:58:03;12.07;;;10.85;;
12768;SDS011;6448;48.916;8.990;2022-12-04T19:59:04;11.90;;;10.80;;
12768;SDS011;6448;48.916;8.990;2022-12-04T20:00:08;11.00;;;10.00;;
12768;SDS011;6448;48.916;8.990;2022-12-04T20:01:12;11.45;;;10.35;;
12768;SDS011;6448;48.916;8.990;2022-12-04T20:02:16;14.02;;;12.68;;
12768;SDS011;6448;48.916;8.990;2022-12-04T20:03:18;14.40;;;12.98;;
12768;SDS011;6448;48.916;8.990;2022-12-04T20:04:21;14.50;;;13.10;;
12768;SDS011;6448;48.916;8.990;2022-12-04T20:05:23;13.52;;;12.23;;
12768;SDS011;6448;48.916;8.990;2022-12-04T20:06:25;14.50;;;13.20;;
12768;SDS011;6448;48.916;8.990;2022-12-04T20:07:27;15.18;;;13.70;;
12768;SDS011;6448;48.916;8.990;2022-12-04T20:08:29;13.98;;;12.68;;
12768;SDS011;6448;48.916;8.990;2022-12-04T20:09:30;13.73;;;12.43;;
12768;SDS011;6448;48.916;8.990;2022-12-04T20:10:33;14.65;;;13.25;;
12768;SDS011;6448;48.916;8.990;2022-12-04T20:11:35;15.68;;;14.15;;
12768;SDS011;6448;48.916;8.990;2022-12-04T20:12:37;13.80;;;12.50;;
12768;SDS011;6448;48.916;8.990;2022-12-04T20:13:38;12.55;;;11.35;;
12768;SDS011;6448;48.916;8.990;2022-12-04T20:14:40;11.82;;;10.73;;
12768;SDS011;6448;48.916;8.990;2022-12-04T20:15:41;12.30;;;11.10;;
12768;SDS011;6448;48.916;8.990;2022-12-04T20:16:43;12.27;;;11.18;;
12768;SDS011;6448;48.916;8.990;2022-12-04T20:17:45;13.93;;;12.52;;
12768;SDS011;6448;48.916;8.990;2022-12-04T20:18:47;13.82;;;12.43;;
12768;SDS011;6448;48.916;8.990;2022-12-04T20:19:49;14.30;;;12.90;;
12768;SDS011;6448;48.916;8.990;2022-12-04T20:20:53;14.10;;;12.70;;
12768;SDS011;6448;48.916;8.990;2022-12-04T20:21:54;15.35;;;13.85;;
12768;SDS011;6448;48.916;8.990;2022-12-04T20:22:56;15.05;;;13.55;;
12768;SDS011;6448;48.916;8.990;2022-12-04T20:23:59;16.02;;;14.43;;
12768;SDS011;6448;48.916;8.990;2022-12-04T20:25:03;14.88;;;13.48;;
12768;SDS011;6448;48.916;8.990;2022-12-04T20:26:04;12.52;;;11.32;;
12768;SDS011;6448;48.916;8.990;2022-12-04T20:27:07;10.60;;;9.60;;
12768;SDS011;6448;48.916;8.990;2022-12-04T20:28:08;10.45;;;9.45;;
12768;SDS011;6448;48.916;8.990;2022-12-04T20:29:11;10.60;;;9.60;;
12768;SDS011;6448;48.916;8.990;2022-12-04T20:30:13;10.35;;;9.35;;
12768;SDS011;6448;48.916;8.990;2022-12-04T20:31:15;10.00;;;9.10;;
12768;SDS011;6448;48.916;8.990;2022-12-04T20:32:18;9.52;;;8.63;;
12768;SDS011;6448;48.916;8.990;2022-12-04T20:33:19;9.98;;;8.98;;
12768;SDS011;6448;48.916;8.990;2022-12-04T20:34:21;9.70;;;8.80;;
12768;SDS011;6448;48.916;8.990;2022-12-04T20:35:24;9.82;;;8.82;;
12768;SDS011;6448;48.916;8.990;2022-12-04T20:36:27;10.50;;;9.50;;
12768;SDS011;6448;48.916;8.990;2022-12-04T20:37:29;9.98;;;9.07;;
12768;SDS011;6448;48.916;8.990;2022-12-04T20:38:30;10.23;;;9.32;;
12768;SDS011;6448;48.916;8.990;2022-12-04T20:39:32;10.27;;;9.38;;
12768;SDS011;6448;48.916;8.990;2022-12-04T20:40:34;10.43;;;9.43;;
12768;SDS011;6448;48.916;8.990;2022-12-04T20:41:35;11.48;;;10.38;;
12768;SDS011;6448;48.916;8.990;2022-12-04T20:42:37;10.40;;;9.48;;
12768;SDS011;6448;48.916;8.990;2022-12-04T20:43:38;11.45;;;10.35;;
12768;SDS011;6448;48.916;8.990;2022-12-04T20:44:40;11.45;;;10.25;;
12768;SDS011;6448;48.916;8.990;2022-12-04T20:45:42;11.48;;;10.43;;
12768;SDS011;6448;48.916;8.990;2022-12-04T20:46:44;10.60;;;9.60;;
12768;SDS011;6448;48.916;8.990;2022-12-04T20:47:45;11.48;;;10.38;;
12768;SDS011;6448;48.916;8.990;2022-12-04T20:48:47;10.43;;;9.43;;
12768;SDS011;6448;48.916;8.990;2022-12-04T20:49:49;11.25;;;10.15;;
12768;SDS011;6448;48.916;8.990;2022-12-04T20:50:53;10.75;;;9.75;;
12768;SDS011;6448;48.916;8.990;2022-12-04T20:51:53;10.48;;;9.48;;
12768;SDS011;6448;48.916;8.990;2022-12-04T20:52:55;10.30;;;9.30;;
12768;SDS011;6448;48.916;8.990;2022-12-04T20:54:06;10.73;;;9.73;;
12768;SDS011;6448;48.916;8.990;2022-12-04T20:57:56;10.45;;;9.52;;
12768;SDS011;6448;48.916;8.990;2022-12-04T20:59:58;11.07;;;10.05;;
12768;SDS011;6448;48.916;8.990;2022-12-04T21:02:25;11.05;;;10.05;;
12768;SDS011;6448;48.916;8.990;2022-12-04T21:03:31;11.85;;;10.65;;
12768;SDS011;6448;48.916;8.990;2022-12-04T21:04:34;13.13;;;11.93;;
12768;SDS011;6448;48.916;8.990;2022-12-04T21:05:36;12.52;;;11.32;;
12768;SDS011;6448;48.916;8.990;2022-12-04T21:06:39;12.50;;;11.40;;
12768;SDS011;6448;48.916;8.990;2022-12-04T21:07:42;11.85;;;10.75;;
12768;SDS011;6448;48.916;8.990;2022-12-04T21:08:44;10.93;;;9.93;;
12768;SDS011;6448;48.916;8.990;2022-12-04T21:09:56;11.30;;;10.27;;
12768;SDS011;6448;48.916;8.990;2022-12-04T21:10:58;10.45;;;9.55;;
12768;SDS011;6448;48.916;8.990;2022-12-04T21:11:59;10.52;;;9.52;;
12768;SDS011;6448;48.916;8.990;2022-12-04T21:13:01;10.80;;;9.70;;
12768;SDS011;6448;48.916;8.990;2022-12-04T21:14:21;9.93;;;9.02;;
12768;SDS011;6448;48.916;8.990;2022-12-04T21:15:42;9.70;;;8.80;;
12768;SDS011;6448;48.916;8.990;2022-12-04T21:17:01;9.80;;;8.90;;
12768;SDS011;6448;48.916;8.990;2022-12-04T21:18:05;9.75;;;8.85;;
12768;SDS011;6448;48.916;8.990;2022-12-04T21:19:07;9.95;;;8.98;;
12768;SDS011;6448;48.916;8.990;2022-12-04T21:20:09;9.70;;;8.80;;
12768;SDS011;6448;48.916;8.990;2022-12-04T21:21:15;9.77;;;8.88;;
12768;SDS011;6448;48.916;8.990;2022-12-04T21:22:18;9.52;;;8.63;;
12768;SDS011;6448;48.916;8.990;2022-12-04T21:23:20;9.82;;;8.93;;
12768;SDS011;6448;48.916;8.990;2022-12-04T21:24:21;10.00;;;9.05;;
12768;SDS011;6448;48.916;8.990;2022-12-04T21:25:25;9.90;;;8.90;;
12768;SDS011;6448;48.916;8.990;2022-12-04T21:26:27;9.38;;;8.48;;
12768;SDS011;6448;48.916;8.990;2022-12-04T21:27:30;9.48;;;8.57;;
12768;SDS011;6448;48.916;8.990;2022-12-04T21:28:31;8.90;;;8.10;;
12768;SDS011;6448;48.916;8.990;2022-12-04T21:29:33;8.70;;;7.90;;
12768;SDS011;6448;48.916;8.990;2022-12-04T21:30:35;9.52;;;8.63;;
12768;SDS011;6448;48.916;8.990;2022-12-04T21:31:37;9.13;;;8.30;;
12768;SDS011;6448;48.916;8.990;2022-12-04T21:32:38;9.07;;;8.20;;
12768;SDS011;6448;48.916;8.990;2022-12-04T21:33:40;9.38;;;8.48;;
12768;SDS011;6448;48.916;8.990;2022-12-04T21:34:41;9.40;;;8.50;;
12768;SDS011;6448;48.916;8.990;2022-12-04T21:35:43;9.18;;;8.35;;
12768;SDS011;6448;48.916;8.990;2022-12-04T21:36:44;9.05;;;8.25;;
12768;SDS011;6448;48.916;8.990;2022-12-04T21:37:47;9.02;;;8.20;;
12768;SDS011;6448;48.916;8.990;2022-12-04T21:38:48;9.32;;;8.52;;
12768;SDS011;6448;48.916;8.990;2022-12-04T21:39:53;8.98;;;8.18;;
12768;SDS011;6448;48.916;8.990;2022-12-04T21:40:55;9.27;;;8.38;;
12768;SDS011;6448;48.916;8.990;2022-12-04T21:41:56;8.75;;;7.95;;
12768;SDS011;6448;48.916;8.990;2022-12-04T21:43:15;9.40;;;8.50;;
12768;SDS011;6448;48.916;8.990;2022-12-04T21:44:18;8.90;;;8.10;;
12768;SDS011;6448;48.916;8.990;2022-12-04T21:45:20;9.15;;;8.32;;
12768;SDS011;6448;48.916;8.990;2022-12-04T21:46:22;8.50;;;7.70;;
12768;SDS011;6448;48.916;8.990;2022-12-04T21:47:22;8.65;;;7.85;;
12768;SDS011;6448;48.916;8.990;2022-12-04T21:48:25;9.02;;;8.20;;
12768;SDS011;6448;48.916;8.990;2022-12-04T21:49:26;9.45;;;8.55;;
12768;SDS011;6448;48.916;8.990;2022-12-04T21:50:28;8.95;;;8.05;;
12768;SDS011;6448;48.916;8.990;2022-12-04T21:51:29;9.30;;;8.40;;
12768;SDS011;6448;48.916;8.990;2022-12-04T21:52:31;8.47;;;7.67;;
12768;SDS011;6448;48.916;8.990;2022-12-04T21:53:33;8.63;;;7.83;;
12768;SDS011;6448;48.916;8.990;2022-12-04T21:54:35;9.13;;;8.23;;
12768;SDS011;6448;48.916;8.990;2022-12-04T21:55:36;9.65;;;8.75;;
12768;SDS011;6448;48.916;8.990;2022-12-04T21:56:38;10.07;;;9.07;;
12768;SDS011;6448;48.916;8.990;2022-12-04T21:57:39;9.73;;;8.82;;
12768;SDS011;6448;48.916;8.990;2022-12-04T21:58:41;9.73;;;8.82;;
12768;SDS011;6448;48.916;8.990;2022-12-04T21:59:41;9.77;;;8.87;;
12768;SDS011;6448;48.916;8.990;2022-12-04T22:00:47;10.68;;;9.68;;
12768;SDS011;6448;48.916;8.990;2022-12-04T22:01:51;10.25;;;9.35;;
12768;SDS011;6448;48.916;8.990;2022-12-04T22:02:53;10.25;;;9.25;;
12768;SDS011;6448;48.916;8.990;2022-12-04T22:03:54;9.57;;;8.60;;
12768;SDS011;6448;48.916;8.990;2022-12-04T22:04:56;9.73;;;8.83;;
12768;SDS011;6448;48.916;8.990;2022-12-04T22:05:58;10.02;;;9.02;;
12768;SDS011;6448;48.916;8.990;2022-12-04T22:07:00;9.85;;;8.95;;
12768;SDS011;6448;48.916;8.990;2022-12-04T22:08:02;9.80;;;8.90;;
12768;SDS011;6448;48.916;8.990;2022-12-04T22:09:06;8.88;;;8.07;;
12768;SDS011;6448;48.916;8.990;2022-12-04T22:10:10;9.32;;;8.43;;
12768;SDS011;6448;48.916;8.990;2022-12-04T22:11:12;9.60;;;8.70;;
12768;SDS011;6448;48.916;8.990;2022-12-04T22:12:14;9.25;;;8.35;;
12768;SDS011;6448;48.916;8.990;2022-12-04T22:13:16;8.90;;;8.07;;
12768;SDS011;6448;48.916;8.990;2022-12-04T22:14:17;9.50;;;8.60;;
12768;SDS011;6448;48.916;8.990;2022-12-04T22:15:19;9.70;;;8.70;;
12768;SDS011;6448;48.916;8.990;2022-12-04T22:16:21;9.20;;;8.40;;
12768;SDS011;6448;48.916;8.990;2022-12-04T22:17:24;9.20;;;8.32;;
12768;SDS011;6448;48.916;8.990;2022-12-04T22:18:29;9.50;;;8.60;;
12768;SDS011;6448;48.916;8.990;2022-12-04T22:19:30;9.20;;;8.30;;
12768;SDS011;6448;48.916;8.990;2022-12-04T22:20:33;9.73;;;8.77;;
12768;SDS011;6448;48.916;8.990;2022-12-04T22:21:36;9.73;;;8.73;;
12768;SDS011;6448;48.916;8.990;2022-12-04T22:22:39;9.07;;;8.18;;
12768;SDS011;6448;48.916;8.990;2022-12-04T22:23:40;9.20;;;8.30;;
12768;SDS011;6448;48.916;8.990;2022-12-04T22:24:44;9.20;;;8.30;;
12768;SDS011;6448;48.916;8.990;2022-12-04T22:25:47;10.23;;;9.23;;
12768;SDS011;6448;48.916;8.990;2022-12-04T22:26:49;9.93;;;8.93;;
12768;SDS011;6448;48.916;8.990;2022-12-04T22:27:51;9.75;;;8.75;;
12768;SDS011;6448;48.916;8.990;2022-12-04T22:28:53;9.50;;;8.60;;
12768;SDS011;6448;48.916;8.990;2022-12-04T22:29:54;9.50;;;8.60;;
12768;SDS011;6448;48.916;8.990;2022-12-04T22:31:00;10.23;;;9.23;;
12768;SDS011;6448;48.916;8.990;2022-12-04T22:32:02;9.35;;;8.45;;
12768;SDS011;6448;48.916;8.990;2022-12-04T22:33:04;9.95;;;8.95;;
12768;SDS011;6448;48.916;8.990;2022-12-04T22:34:09;9.77;;;8.80;;
12768;SDS011;6448;48.916;8.990;2022-12-04T22:35:11;9.73;;;8.82;;
12768;SDS011;6448;48.916;8.990;2022-12-04T22:36:13;10.23;;;9.23;;
12768;SDS011;6448;48.916;8.990;2022-12-04T22:37:16;9.68;;;8.75;;
12768;SDS011;6448;48.916;8.990;2022-12-04T22:38:17;9.85;;;8.85;;
12768;SDS011;6448;48.916;8.990;2022-12-04T22:39:19;9.93;;;8.98;;
12768;SDS011;6448;48.916;8.990;2022-12-04T22:40:21;9.97;;;8.97;;
12768;SDS011;6448;48.916;8.990;2022-12-04T22:41:24;10.00;;;9.10;;
12768;SDS011;6448;48.916;8.990;2022-12-04T22:42:25;10.50;;;9.45;;
12768;SDS011;6448;48.916;8.990;2022-12-04T22:43:27;10.00;;;9.00;;
12768;SDS011;6448;48.916;8.990;2022-12-04T22:44:29;10.35;;;9.35;;
12768;SDS011;6448;48.916;8.990;2022-12-04T22:45:31;10.40;;;9.40;;
12768;SDS011;6448;48.916;8.990;2022-12-04T22:46:32;10.23;;;9.23;;
12768;SDS011;6448;48.916;8.990;2022-12-04T22:47:34;10.40;;;9.40;;
12768;SDS011;6448;48.916;8.990;2022-12-04T22:48:35;10.20;;;9.20;;
12768;SDS011;6448;48.916;8.990;2022-12-04T22:49:38;10.98;;;9.88;;
12768;SDS011;6448;48.916;8.990;2022-12-04T22:50:39;10.05;;;9.05;;
12768;SDS011;6448;48.916;8.990;2022-12-04T22:51:40;10.27;;;9.27;;
12768;SDS011;6448;48.916;8.990;2022-12-04T22:52:42;9.27;;;8.37;;
12768;SDS011;6448;48.916;8.990;2022-12-04T22:53:44;10.15;;;9.25;;
12768;SDS011;6448;48.916;8.990;2022-12-04T22:54:48;9.52;;;8.63;;
12768;SDS011;6448;48.916;8.990;2022-12-04T22:55:50;9.30;;;8.40;;
12768;SDS011;6448;48.916;8.990;2022-12-04T22:56:52;10.05;;;9.10;;
12768;SDS011;6448;48.916;8.990;2022-12-04T22:57:53;9.97;;;8.97;;
12768;SDS011;6448;48.916;8.990;2022-12-04T22:58:55;10.17;;;9.07;;
12768;SDS011;6448;48.916;8.990;2022-12-04T22:59:57;9.65;;;8.75;;
12768;SDS011;6448;48.916;8.990;2022-12-04T23:00:59;10.07;;;9.07;;
12768;SDS011;6448;48.916;8.990;2022-12-04T23:02:00;10.23;;;9.23;;
12768;SDS011;6448;48.916;8.990;2022-12-04T23:03:02;9.68;;;8.77;;
12768;SDS011;6448;48.916;8.990;2022-12-04T23:04:03;10.07;;;9.07;;
12768;SDS011;6448;48.916;8.990;2022-12-04T23:05:05;10.32;;;9.32;;
12768;SDS011;6448;48.916;8.990;2022-12-04T23:06:06;9.90;;;8.90;;
12768;SDS011;6448;48.916;8.990;2022-12-04T23:07:09;9.63;;;8.73;;
12768;SDS011;6448;48.916;8.990;2022-12-04T23:08:11;10.20;;;9.20;;
12768;SDS011;6448;48.916;8.990;2022-12-04T23:09:13;10.65;;;9.65;;
12768;SDS011;6448;48.916;8.990;2022-12-04T23:10:16;10.07;;;9.07;;
12768;SDS011;6448;48.916;8.990;2022-12-04T23:11:19;10.27;;;9.27;;
12768;SDS011;6448;48.916;8.990;2022-12-04T23:12:22;9.73;;;8.82;;
12768;SDS011;6448;48.916;8.990;2022-12-04T23:13:24;9.87;;;8.87;;
12768;SDS011;6448;48.916;8.990;2022-12-04T23:14:26;10.10;;;9.10;;
12768;SDS011;6448;48.916;8.990;2022-12-04T23:15:28;9.90;;;8.90;;
12768;SDS011;6448;48.916;8.990;2022-12-04T23:16:30;9.70;;;8.80;;
12768;SDS011;6448;48.916;8.990;2022-12-04T23:17:33;9.85;;;8.88;;
12768;SDS011;6448;48.916;8.990;2022-12-04T23:18:35;10.48;;;9.48;;